sensor_id;sensor_type;location;lat;lon;timestamp;pressure;altitude;pressure_sealevel;temperature
65290;BMP180;51893;59.754;10.110;2023-02-01T00:01:21;99182.80;;;-1.60
65290;BMP180;51893;59.754;10.110;2023-02-01T00:03:49;99178.40;;;-1.62
65290;BMP180;51893;59.754;10.110;2023-02-01T00:06:17;99172.20;;;-1.70
65290;BMP180;51893;59.754;10.110;2023-02-01T00:08:45;99169.60;;;-1.70
65290;BMP180;51893;59.754;10.110;2023-02-01T00:11:13;99170.40;;;-1.76
65290;BMP180;51893;59.754;10.110;2023-02-01T00:13:42;99170.40;;;-1.80
65290;BMP180;51893;59.754;10.110;2023-02-01T00:16:13;99164.60;;;-1.80
65290;BMP180;51893;59.754;10.110;2023-02-01T00:18:49;99170.40;;;-1.80
65290;BMP180;51893;59.754;10.110;2023-02-01T00:21:22;99174.60;;;-1.70
65290;BMP180;51893;59.754;10.110;2023-02-01T00:23:50;99173.60;;;-1.60
65290;BMP180;51893;59.754;10.110;2023-02-01T00:26:41;99174.60;;;-1.54
65290;BMP180;51893;59.754;10.110;2023-02-01T00:29:14;99174.80;;;-1.50
65290;BMP180;51893;59.754;10.110;2023-02-01T00:31:44;99180.40;;;-1.50
65290;BMP180;51893;59.754;10.110;2023-02-01T00:34:16;99174.20;;;-1.70
65290;BMP180;51893;59.754;10.110;2023-02-01T00:36:45;99173.80;;;-1.90
65290;BMP180;51893;59.754;10.110;2023-02-01T00:39:14;99175.80;;;-1.90
65290;BMP180;51893;59.754;10.110;2023-02-01T00:41:43;99175.60;;;-1.98
65290;BMP180;51893;59.754;10.110;2023-02-01T00:44:11;99181.40;;;-1.90
65290;BMP180;51893;59.754;10.110;2023-02-01T00:46:38;99180.40;;;-1.90
65290;BMP180;51893;59.754;10.110;2023-02-01T00:49:06;99176.60;;;-1.86
65290;BMP180;51893;59.754;10.110;2023-02-01T00:51:37;99167.60;;;-1.80
65290;BMP180;51893;59.754;10.110;2023-02-01T00:54:06;99164.60;;;-1.80
65290;BMP180;51893;59.754;10.110;2023-02-01T00:56:36;99161.60;;;-1.78
65290;BMP180;51893;59.754;10.110;2023-02-01T00:59:03;99162.20;;;-1.80
65290;BMP180;51893;59.754;10.110;2023-02-01T01:01:33;99167.20;;;-1.86
65290;BMP180;51893;59.754;10.110;2023-02-01T01:04:02;99159.60;;;-1.90
65290;BMP180;51893;59.754;10.110;2023-02-01T01:06:33;99157.40;;;-1.90
65290;BMP180;51893;59.754;10.110;2023-02-01T01:09:06;99155.40;;;-2.00
65290;BMP180;51893;59.754;10.110;2023-02-01T01:11:37;99156.20;;;-2.00
65290;BMP180;51893;59.754;10.110;2023-02-01T01:14:07;99155.00;;;-1.98
65290;BMP180;51893;59.754;10.110;2023-02-01T01:16:36;99158.80;;;-1.98
65290;BMP180;51893;59.754;10.110;2023-02-01T01:19:04;99160.60;;;-1.90
65290;BMP180;51893;59.754;10.110;2023-02-01T01:21:33;99158.20;;;-1.86
65290;BMP180;51893;59.754;10.110;2023-02-01T01:24:01;99152.60;;;-1.80
65290;BMP180;51893;59.754;10.110;2023-02-01T01:26:30;99154.20;;;-1.70
65290;BMP180;51893;59.754;10.110;2023-02-01T01:28:59;99147.20;;;-1.70
65290;BMP180;51893;59.754;10.110;2023-02-01T01:31:33;99143.60;;;-1.80
65290;BMP180;51893;59.754;10.110;2023-02-01T01:34:02;99133.80;;;-1.88
65290;BMP180;51893;59.754;10.110;2023-02-01T01:36:30;99131.20;;;-1.86
65290;BMP180;51893;59.754;10.110;2023-02-01T01:38:58;99126.40;;;-1.80
65290;BMP180;51893;59.754;10.110;2023-02-01T01:41:30;99130.00;;;-1.80
65290;BMP180;51893;59.754;10.110;2023-02-01T01:44:03;99125.20;;;-1.70
65290;BMP180;51893;59.754;10.110;2023-02-01T01:46:40;99122.80;;;-1.70
65290;BMP180;51893;59.754;10.110;2023-02-01T01:49:14;99118.20;;;-1.70
65290;BMP180;51893;59.754;10.110;2023-02-01T01:51:53;99116.00;;;-1.70
65290;BMP180;51893;59.754;10.110;2023-02-01T01:57:00;99129.60;;;-1.60
65290;BMP180;51893;59.754;10.110;2023-02-01T01:59:40;99127.20;;;-1.50
65290;BMP180;51893;59.754;10.110;2023-02-01T02:02:11;99124.00;;;-1.44
65290;BMP180;51893;59.754;10.110;2023-02-01T02:04:39;99125.40;;;-1.40
65290;BMP180;51893;59.754;10.110;2023-02-01T02:07:16;99121.20;;;-1.38
65290;BMP180;51893;59.754;10.110;2023-02-01T02:09:45;99126.20;;;-1.30
65290;BMP180;51893;59.754;10.110;2023-02-01T02:12:28;99118.00;;;-1.36
65290;BMP180;51893;59.754;10.110;2023-02-01T02:14:58;99109.00;;;-1.38
65290;BMP180;51893;59.754;10.110;2023-02-01T02:18:01;99108.00;;;-1.30
65290;BMP180;51893;59.754;10.110;2023-02-01T02:21:01;99112.80;;;-1.26
65290;BMP180;51893;59.754;10.110;2023-02-01T02:38:27;99114.00;;;-1.40
65290;BMP180;51893;59.754;10.110;2023-02-01T02:47:48;99109.60;;;-1.40
65290;BMP180;51893;59.754;10.110;2023-02-01T02:53:56;99096.20;;;-1.22
65290;BMP180;51893;59.754;10.110;2023-02-01T02:56:44;99090.60;;;-1.20
65290;BMP180;51893;59.754;10.110;2023-02-01T02:59:33;99085.20;;;-1.14
65290;BMP180;51893;59.754;10.110;2023-02-01T03:02:21;99075.40;;;-1.10
65290;BMP180;51893;59.754;10.110;2023-02-01T03:05:09;99070.40;;;-1.10
65290;BMP180;51893;59.754;10.110;2023-02-01T03:08:03;99078.40;;;-1.20
65290;BMP180;51893;59.754;10.110;2023-02-01T03:11:14;99064.20;;;-1.30
65290;BMP180;51893;59.754;10.110;2023-02-01T03:13:53;99064.00;;;-1.32
65290;BMP180;51893;59.754;10.110;2023-02-01T03:16:32;99062.20;;;-1.40
65290;BMP180;51893;59.754;10.110;2023-02-01T03:19:38;99065.40;;;-1.50
65290;BMP180;51893;59.754;10.110;2023-02-01T03:22:15;99067.00;;;-1.50
65290;BMP180;51893;59.754;10.110;2023-02-01T03:24:57;99067.40;;;-1.40
65290;BMP180;51893;59.754;10.110;2023-02-01T03:27:34;99071.00;;;-1.30
65290;BMP180;51893;59.754;10.110;2023-02-01T03:30:29;99067.40;;;-1.30
65290;BMP180;51893;59.754;10.110;2023-02-01T03:33:05;99074.40;;;-1.40
65290;BMP180;51893;59.754;10.110;2023-02-01T03:35:54;99075.80;;;-1.40
65290;BMP180;51893;59.754;10.110;2023-02-01T03:38:46;99082.00;;;-1.50
65290;BMP180;51893;59.754;10.110;2023-02-01T03:41:38;99083.40;;;-1.60
65290;BMP180;51893;59.754;10.110;2023-02-01T03:47:26;99079.60;;;-1.60
65290;BMP180;51893;59.754;10.110;2023-02-01T03:50:01;99083.60;;;-1.60
65290;BMP180;51893;59.754;10.110;2023-02-01T03:52:44;99074.60;;;-1.70
65290;BMP180;51893;59.754;10.110;2023-02-01T03:55:17;99078.20;;;-1.70
65290;BMP180;51893;59.754;10.110;2023-02-01T03:58:16;99079.60;;;-1.70
65290;BMP180;51893;59.754;10.110;2023-02-01T04:03:19;99071.20;;;-1.70
65290;BMP180;51893;59.754;10.110;2023-02-01T04:05:51;99069.20;;;-1.60
65290;BMP180;51893;59.754;10.110;2023-02-01T04:08:21;99074.20;;;-1.60
65290;BMP180;51893;59.754;10.110;2023-02-01T04:10:49;99074.40;;;-1.60
65290;BMP180;51893;59.754;10.110;2023-02-01T04:13:16;99071.80;;;-1.60
65290;BMP180;51893;59.754;10.110;2023-02-01T04:15:44;99073.20;;;-1.60
65290;BMP180;51893;59.754;10.110;2023-02-01T04:18:14;99074.80;;;-1.60
65290;BMP180;51893;59.754;10.110;2023-02-01T04:20:42;99076.40;;;-1.50
65290;BMP180;51893;59.754;10.110;2023-02-01T04:23:12;99076.00;;;-1.50
65290;BMP180;51893;59.754;10.110;2023-02-01T04:25:40;99075.40;;;-1.50
65290;BMP180;51893;59.754;10.110;2023-02-01T04:28:08;99080.80;;;-1.50
65290;BMP180;51893;59.754;10.110;2023-02-01T04:30:39;99070.20;;;-1.50
65290;BMP180;51893;59.754;10.110;2023-02-01T04:33:08;99074.00;;;-1.50
65290;BMP180;51893;59.754;10.110;2023-02-01T04:35:35;99074.40;;;-1.58
65290;BMP180;51893;59.754;10.110;2023-02-01T04:38:03;99072.40;;;-1.60
65290;BMP180;51893;59.754;10.110;2023-02-01T04:40:31;99068.80;;;-1.60
65290;BMP180;51893;59.754;10.110;2023-02-01T04:43:01;99073.20;;;-1.60
65290;BMP180;51893;59.754;10.110;2023-02-01T04:45:30;99080.80;;;-1.70
65290;BMP180;51893;59.754;10.110;2023-02-01T04:47:58;99083.60;;;-1.80
65290;BMP180;51893;59.754;10.110;2023-02-01T04:50:26;99082.00;;;-1.80
65290;BMP180;51893;59.754;10.110;2023-02-01T04:52:55;99082.60;;;-1.80
65290;BMP180;51893;59.754;10.110;2023-02-01T04:55:23;99086.60;;;-1.80
65290;BMP180;51893;59.754;10.110;2023-02-01T04:57:51;99089.60;;;-1.80
65290;BMP180;51893;59.754;10.110;2023-02-01T05:00:19;99093.60;;;-1.80
65290;BMP180;51893;59.754;10.110;2023-02-01T05:02:48;99089.40;;;-1.80
65290;BMP180;51893;59.754;10.110;2023-02-01T05:05:16;99088.00;;;-1.80
65290;BMP180;51893;59.754;10.110;2023-02-01T05:07:46;99092.40;;;-1.70
65290;BMP180;51893;59.754;10.110;2023-02-01T05:10:15;99093.20;;;-1.70
65290;BMP180;51893;59.754;10.110;2023-02-01T05:12:44;99097.00;;;-1.70
65290;BMP180;51893;59.754;10.110;2023-02-01T05:15:31;99096.40;;;-1.80
65290;BMP180;51893;59.754;10.110;2023-02-01T05:17:59;99098.40;;;-1.80
65290;BMP180;51893;59.754;10.110;2023-02-01T05:20:27;99100.80;;;-1.80
65290;BMP180;51893;59.754;10.110;2023-02-01T05:22:55;99098.00;;;-1.80
65290;BMP180;51893;59.754;10.110;2023-02-01T05:25:23;99097.20;;;-1.90
65290;BMP180;51893;59.754;10.110;2023-02-01T05:27:54;99097.60;;;-2.00
65290;BMP180;51893;59.754;10.110;2023-02-01T05:30:21;99097.80;;;-2.02
65290;BMP180;51893;59.754;10.110;2023-02-01T05:32:52;99090.80;;;-2.02
65290;BMP180;51893;59.754;10.110;2023-02-01T05:35:20;99095.80;;;-2.10
65290;BMP180;51893;59.754;10.110;2023-02-01T05:37:48;99094.60;;;-2.00
65290;BMP180;51893;59.754;10.110;2023-02-01T05:40:16;99092.60;;;-2.10
65290;BMP180;51893;59.754;10.110;2023-02-01T05:42:44;99094.80;;;-2.10
65290;BMP180;51893;59.754;10.110;2023-02-01T05:45:12;99097.40;;;-2.10
65290;BMP180;51893;59.754;10.110;2023-02-01T05:47:40;99097.60;;;-2.10
65290;BMP180;51893;59.754;10.110;2023-02-01T05:50:08;99099.00;;;-2.10
65290;BMP180;51893;59.754;10.110;2023-02-01T05:52:36;99101.00;;;-2.10
65290;BMP180;51893;59.754;10.110;2023-02-01T05:55:06;99108.00;;;-2.00
65290;BMP180;51893;59.754;10.110;2023-02-01T05:57:35;99118.00;;;-2.02
65290;BMP180;51893;59.754;10.110;2023-02-01T06:00:06;99123.20;;;-2.00
65290;BMP180;51893;59.754;10.110;2023-02-01T06:02:34;99127.60;;;-2.00
65290;BMP180;51893;59.754;10.110;2023-02-01T06:05:03;99126.00;;;-2.00
65290;BMP180;51893;59.754;10.110;2023-02-01T06:07:31;99127.20;;;-2.08
65290;BMP180;51893;59.754;10.110;2023-02-01T06:10:00;99124.80;;;-2.06
65290;BMP180;51893;59.754;10.110;2023-02-01T06:12:28;99127.80;;;-2.00
65290;BMP180;51893;59.754;10.110;2023-02-01T06:14:56;99132.20;;;-2.00
65290;BMP180;51893;59.754;10.110;2023-02-01T06:17:24;99132.00;;;-1.90
65290;BMP180;51893;59.754;10.110;2023-02-01T06:19:52;99133.60;;;-1.90
65290;BMP180;51893;59.754;10.110;2023-02-01T06:22:20;99143.40;;;-1.90
65290;BMP180;51893;59.754;10.110;2023-02-01T06:24:49;99145.80;;;-1.90
65290;BMP180;51893;59.754;10.110;2023-02-01T06:27:16;99153.40;;;-1.90
65290;BMP180;51893;59.754;10.110;2023-02-01T06:29:45;99152.80;;;-1.90
65290;BMP180;51893;59.754;10.110;2023-02-01T06:32:14;99163.60;;;-1.80
65290;BMP180;51893;59.754;10.110;2023-02-01T06:34:42;99168.40;;;-1.70
65290;BMP180;51893;59.754;10.110;2023-02-01T06:37:11;99167.80;;;-1.80
65290;BMP180;51893;59.754;10.110;2023-02-01T06:39:40;99162.40;;;-1.80
65290;BMP180;51893;59.754;10.110;2023-02-01T06:42:08;99166.20;;;-1.80
65290;BMP180;51893;59.754;10.110;2023-02-01T06:44:37;99169.00;;;-1.80
65290;BMP180;51893;59.754;10.110;2023-02-01T06:47:05;99170.60;;;-1.72
65290;BMP180;51893;59.754;10.110;2023-02-01T06:49:35;99165.60;;;-1.70
65290;BMP180;51893;59.754;10.110;2023-02-01T06:52:03;99167.60;;;-1.70
65290;BMP180;51893;59.754;10.110;2023-02-01T06:54:32;99160.40;;;-1.68
65290;BMP180;51893;59.754;10.110;2023-02-01T06:57:02;99164.00;;;-1.60
65290;BMP180;51893;59.754;10.110;2023-02-01T06:59:29;99171.80;;;-1.60
65290;BMP180;51893;59.754;10.110;2023-02-01T07:01:57;99189.00;;;-1.60
65290;BMP180;51893;59.754;10.110;2023-02-01T07:04:25;99189.60;;;-1.60
65290;BMP180;51893;59.754;10.110;2023-02-01T07:06:53;99187.20;;;-1.60
65290;BMP180;51893;59.754;10.110;2023-02-01T07:09:21;99192.80;;;-1.60
65290;BMP180;51893;59.754;10.110;2023-02-01T07:11:50;99193.20;;;-1.70
65290;BMP180;51893;59.754;10.110;2023-02-01T07:14:19;99194.20;;;-1.70
65290;BMP180;51893;59.754;10.110;2023-02-01T07:16:48;99185.60;;;-1.64
65290;BMP180;51893;59.754;10.110;2023-02-01T07:19:16;99199.60;;;-1.60
65290;BMP180;51893;59.754;10.110;2023-02-01T07:21:44;99200.20;;;-1.50
65290;BMP180;51893;59.754;10.110;2023-02-01T07:24:12;99207.80;;;-1.42
65290;BMP180;51893;59.754;10.110;2023-02-01T07:26:43;99208.00;;;-1.40
65290;BMP180;51893;59.754;10.110;2023-02-01T07:29:11;99212.60;;;-1.40
65290;BMP180;51893;59.754;10.110;2023-02-01T07:31:39;99219.00;;;-1.36
65290;BMP180;51893;59.754;10.110;2023-02-01T07:34:08;99225.20;;;-1.40
65290;BMP180;51893;59.754;10.110;2023-02-01T07:36:36;99229.20;;;-1.50
65290;BMP180;51893;59.754;10.110;2023-02-01T07:39:05;99234.40;;;-1.60
65290;BMP180;51893;59.754;10.110;2023-02-01T07:41:32;99241.40;;;-1.70
65290;BMP180;51893;59.754;10.110;2023-02-01T07:44:01;99242.80;;;-1.70
65290;BMP180;51893;59.754;10.110;2023-02-01T07:46:29;99252.60;;;-1.70
65290;BMP180;51893;59.754;10.110;2023-02-01T07:48:57;99259.60;;;-1.70
65290;BMP180;51893;59.754;10.110;2023-02-01T07:51:29;99261.40;;;-1.80
65290;BMP180;51893;59.754;10.110;2023-02-01T07:53:57;99265.60;;;-1.90
65290;BMP180;51893;59.754;10.110;2023-02-01T07:56:25;99270.80;;;-2.00
65290;BMP180;51893;59.754;10.110;2023-02-01T07:58:54;99269.80;;;-2.00
65290;BMP180;51893;59.754;10.110;2023-02-01T08:01:26;99270.40;;;-2.00
65290;BMP180;51893;59.754;10.110;2023-02-01T08:03:57;99269.20;;;-2.10
65290;BMP180;51893;59.754;10.110;2023-02-01T08:06:30;99270.00;;;-2.02
65290;BMP180;51893;59.754;10.110;2023-02-01T08:08:59;99273.00;;;-1.96
65290;BMP180;51893;59.754;10.110;2023-02-01T08:11:31;99272.60;;;-1.80
65290;BMP180;51893;59.754;10.110;2023-02-01T08:13:59;99278.40;;;-1.64
65290;BMP180;51893;59.754;10.110;2023-02-01T08:16:30;99273.40;;;-1.50
65290;BMP180;51893;59.754;10.110;2023-02-01T08:18:58;99278.60;;;-1.50
65290;BMP180;51893;59.754;10.110;2023-02-01T08:21:28;99282.80;;;-1.60
65290;BMP180;51893;59.754;10.110;2023-02-01T08:24:07;99286.40;;;-1.70
65290;BMP180;51893;59.754;10.110;2023-02-01T08:26:36;99286.00;;;-1.80
65290;BMP180;51893;59.754;10.110;2023-02-01T08:29:07;99287.00;;;-1.80
65290;BMP180;51893;59.754;10.110;2023-02-01T08:31:35;99287.40;;;-1.70
65290;BMP180;51893;59.754;10.110;2023-02-01T08:34:03;99291.00;;;-1.66
65290;BMP180;51893;59.754;10.110;2023-02-01T08:36:35;99285.60;;;-1.60
65290;BMP180;51893;59.754;10.110;2023-02-01T08:39:06;99296.20;;;-1.58
65290;BMP180;51893;59.754;10.110;2023-02-01T08:41:37;99290.60;;;-1.50
65290;BMP180;51893;59.754;10.110;2023-02-01T08:44:06;99299.80;;;-1.38
65290;BMP180;51893;59.754;10.110;2023-02-01T08:46:34;99302.80;;;-1.40
65290;BMP180;51893;59.754;10.110;2023-02-01T08:49:04;99300.60;;;-1.40
65290;BMP180;51893;59.754;10.110;2023-02-01T08:51:35;99307.60;;;-1.52
65290;BMP180;51893;59.754;10.110;2023-02-01T08:54:03;99310.20;;;-1.60
65290;BMP180;51893;59.754;10.110;2023-02-01T08:56:31;99311.40;;;-1.70
65290;BMP180;51893;59.754;10.110;2023-02-01T08:58:59;99311.20;;;-1.80
65290;BMP180;51893;59.754;10.110;2023-02-01T09:01:27;99321.80;;;-1.78
65290;BMP180;51893;59.754;10.110;2023-02-01T09:03:55;99323.40;;;-1.70
65290;BMP180;51893;59.754;10.110;2023-02-01T09:06:24;99330.60;;;-1.60
65290;BMP180;51893;59.754;10.110;2023-02-01T09:08:52;99340.00;;;-1.60
65290;BMP180;51893;59.754;10.110;2023-02-01T09:11:20;99351.40;;;-1.50
65290;BMP180;51893;59.754;10.110;2023-02-01T09:13:48;99358.80;;;-1.50
65290;BMP180;51893;59.754;10.110;2023-02-01T09:16:17;99359.00;;;-1.50
65290;BMP180;51893;59.754;10.110;2023-02-01T09:18:45;99369.40;;;-1.50
65290;BMP180;51893;59.754;10.110;2023-02-01T09:21:34;99378.60;;;-1.60
65290;BMP180;51893;59.754;10.110;2023-02-01T09:24:03;99384.80;;;-1.60
65290;BMP180;51893;59.754;10.110;2023-02-01T09:26:32;99386.20;;;-1.70
65290;BMP180;51893;59.754;10.110;2023-02-01T09:29:00;99385.60;;;-1.68
65290;BMP180;51893;59.754;10.110;2023-02-01T09:31:30;99381.80;;;-1.60
65290;BMP180;51893;59.754;10.110;2023-02-01T09:33:58;99382.80;;;-1.60
65290;BMP180;51893;59.754;10.110;2023-02-01T09:36:26;99387.20;;;-1.60
65290;BMP180;51893;59.754;10.110;2023-02-01T09:38:58;99382.60;;;-1.60
65290;BMP180;51893;59.754;10.110;2023-02-01T09:41:59;99381.60;;;-1.60
65290;BMP180;51893;59.754;10.110;2023-02-01T09:47:24;99392.20;;;-1.70
65290;BMP180;51893;59.754;10.110;2023-02-01T09:50:13;99398.60;;;-1.60
65290;BMP180;51893;59.754;10.110;2023-02-01T09:53:18;99397.80;;;-1.50
65290;BMP180;51893;59.754;10.110;2023-02-01T09:55:53;99409.20;;;-1.50
65290;BMP180;51893;59.754;10.110;2023-02-01T09:58:45;99413.80;;;-1.50
65290;BMP180;51893;59.754;10.110;2023-02-01T10:01:20;99423.40;;;-1.60
65290;BMP180;51893;59.754;10.110;2023-02-01T10:04:07;99423.80;;;-1.68
65290;BMP180;51893;59.754;10.110;2023-02-01T10:24:53;99417.80;;;-1.40
65290;BMP180;51893;59.754;10.110;2023-02-01T10:27:36;99424.40;;;-1.30
65290;BMP180;51893;59.754;10.110;2023-02-01T10:30:22;99432.20;;;-1.30
65290;BMP180;51893;59.754;10.110;2023-02-01T10:33:24;99424.60;;;-1.30
65290;BMP180;51893;59.754;10.110;2023-02-01T10:36:00;99439.40;;;-1.30
65290;BMP180;51893;59.754;10.110;2023-02-01T10:38:33;99449.40;;;-1.20
65290;BMP180;51893;59.754;10.110;2023-02-01T10:41:15;99451.60;;;-1.20
65290;BMP180;51893;59.754;10.110;2023-02-01T10:43:47;99452.00;;;-1.20
65290;BMP180;51893;59.754;10.110;2023-02-01T10:46:17;99462.00;;;-1.30
65290;BMP180;51893;59.754;10.110;2023-02-01T10:48:49;99465.20;;;-1.30
65290;BMP180;51893;59.754;10.110;2023-02-01T10:51:25;99461.60;;;-1.30
65290;BMP180;51893;59.754;10.110;2023-02-01T10:54:03;99464.20;;;-1.32
65290;BMP180;51893;59.754;10.110;2023-02-01T10:56:38;99466.20;;;-1.30
65290;BMP180;51893;59.754;10.110;2023-02-01T10:59:17;99473.20;;;-1.20
65290;BMP180;51893;59.754;10.110;2023-02-01T11:01:51;99474.40;;;-1.10
65290;BMP180;51893;59.754;10.110;2023-02-01T11:04:33;99478.40;;;-1.10
65290;BMP180;51893;59.754;10.110;2023-02-01T11:07:33;99482.60;;;-1.06
65290;BMP180;51893;59.754;10.110;2023-02-01T11:10:02;99477.80;;;-1.00
65290;BMP180;51893;59.754;10.110;2023-02-01T11:12:38;99473.60;;;-1.00
65290;BMP180;51893;59.754;10.110;2023-02-01T11:15:23;99475.60;;;-0.90
65290;BMP180;51893;59.754;10.110;2023-02-01T11:17:54;99473.80;;;-0.88
65290;BMP180;51893;59.754;10.110;2023-02-01T11:20:38;99474.20;;;-0.72
65290;BMP180;51893;59.754;10.110;2023-02-01T11:23:16;99475.20;;;-0.70
65290;BMP180;51893;59.754;10.110;2023-02-01T11:25:49;99482.60;;;-0.62
65290;BMP180;51893;59.754;10.110;2023-02-01T11:28:27;99479.20;;;-0.60
65290;BMP180;51893;59.754;10.110;2023-02-01T11:31:02;99481.20;;;-0.60
65290;BMP180;51893;59.754;10.110;2023-02-01T11:33:39;99486.40;;;-0.50
65290;BMP180;51893;59.754;10.110;2023-02-01T11:36:20;99482.20;;;-0.50
65290;BMP180;51893;59.754;10.110;2023-02-01T11:42:03;99483.60;;;-0.50
65290;BMP180;51893;59.754;10.110;2023-02-01T11:44:40;99482.20;;;-0.50
65290;BMP180;51893;59.754;10.110;2023-02-01T11:47:31;99487.80;;;-0.50
65290;BMP180;51893;59.754;10.110;2023-02-01T11:50:03;99492.60;;;-0.50
65290;BMP180;51893;59.754;10.110;2023-02-01T11:58:50;99496.00;;;-0.34
65290;BMP180;51893;59.754;10.110;2023-02-01T12:04:49;99493.00;;;-0.30
65290;BMP180;51893;59.754;10.110;2023-02-01T12:07:50;99497.80;;;-0.30
65290;BMP180;51893;59.754;10.110;2023-02-01T12:13:19;99499.00;;;-0.40
65290;BMP180;51893;59.754;10.110;2023-02-01T12:28:45;99512.40;;;-0.20
65290;BMP180;51893;59.754;10.110;2023-02-01T12:38:17;99521.80;;;0.00
65290;BMP180;51893;59.754;10.110;2023-02-01T12:41:41;99524.80;;;-0.02
65290;BMP180;51893;59.754;10.110;2023-02-01T12:47:37;99530.60;;;-0.22
65290;BMP180;51893;59.754;10.110;2023-02-01T12:50:23;99525.60;;;-0.30
65290;BMP180;51893;59.754;10.110;2023-02-01T12:53:07;99527.80;;;-0.20
65290;BMP180;51893;59.754;10.110;2023-02-01T12:55:46;99529.20;;;-0.20
65290;BMP180;51893;59.754;10.110;2023-02-01T12:58:28;99529.40;;;-0.16
65290;BMP180;51893;59.754;10.110;2023-02-01T13:01:09;99531.80;;;-0.10
65290;BMP180;51893;59.754;10.110;2023-02-01T13:04:03;99536.00;;;-0.20
65290;BMP180;51893;59.754;10.110;2023-02-01T13:06:46;99545.80;;;-0.30
65290;BMP180;51893;59.754;10.110;2023-02-01T13:09:31;99548.40;;;-0.30
65290;BMP180;51893;59.754;10.110;2023-02-01T13:12:34;99549.80;;;-0.34
65290;BMP180;51893;59.754;10.110;2023-02-01T13:15:25;99550.60;;;-0.40
65290;BMP180;51893;59.754;10.110;2023-02-01T13:18:01;99555.20;;;-0.30
65290;BMP180;51893;59.754;10.110;2023-02-01T13:20:37;99560.60;;;-0.20
65290;BMP180;51893;59.754;10.110;2023-02-01T13:23:30;99560.80;;;-0.20
65290;BMP180;51893;59.754;10.110;2023-02-01T13:25:59;99564.00;;;-0.20
65290;BMP180;51893;59.754;10.110;2023-02-01T13:28:57;99567.60;;;-0.10
65290;BMP180;51893;59.754;10.110;2023-02-01T13:32:20;99579.40;;;-0.10
65290;BMP180;51893;59.754;10.110;2023-02-01T13:40:53;99595.00;;;-0.10
65290;BMP180;51893;59.754;10.110;2023-02-01T13:43:31;99598.40;;;-0.10
65290;BMP180;51893;59.754;10.110;2023-02-01T13:46:09;99601.60;;;-0.08
65290;BMP180;51893;59.754;10.110;2023-02-01T13:48:55;99604.20;;;0.00
65290;BMP180;51893;59.754;10.110;2023-02-01T13:51:44;99608.00;;;0.00
65290;BMP180;51893;59.754;10.110;2023-02-01T13:54:39;99613.00;;;0.04
65290;BMP180;51893;59.754;10.110;2023-02-01T13:57:38;99613.60;;;0.00
65290;BMP180;51893;59.754;10.110;2023-02-01T14:13:41;99644.60;;;0.00
65290;BMP180;51893;59.754;10.110;2023-02-01T14:16:15;99651.80;;;0.00
65290;BMP180;51893;59.754;10.110;2023-02-01T14:24:20;99673.60;;;0.00
65290;BMP180;51893;59.754;10.110;2023-02-01T14:26:52;99684.80;;;0.10
65290;BMP180;51893;59.754;10.110;2023-02-01T14:29:33;99685.00;;;0.10
65290;BMP180;51893;59.754;10.110;2023-02-01T14:40:05;99695.00;;;0.00
65290;BMP180;51893;59.754;10.110;2023-02-01T14:42:51;99700.20;;;0.00
65290;BMP180;51893;59.754;10.110;2023-02-01T14:50:48;99722.60;;;-0.20
65290;BMP180;51893;59.754;10.110;2023-02-01T14:53:33;99728.40;;;-0.30
65290;BMP180;51893;59.754;10.110;2023-02-01T14:58:59;99747.00;;;-0.30
65290;BMP180;51893;59.754;10.110;2023-02-01T15:01:34;99753.20;;;-0.32
65290;BMP180;51893;59.754;10.110;2023-02-01T15:04:11;99754.20;;;-0.40
65290;BMP180;51893;59.754;10.110;2023-02-01T15:07:07;99763.80;;;-0.48
65290;BMP180;51893;59.754;10.110;2023-02-01T15:09:42;99773.20;;;-0.46
65290;BMP180;51893;59.754;10.110;2023-02-01T15:15:02;99776.20;;;-0.40
65290;BMP180;51893;59.754;10.110;2023-02-01T15:17:33;99780.80;;;-0.40
65290;BMP180;51893;59.754;10.110;2023-02-01T15:20:23;99790.20;;;-0.40
65290;BMP180;51893;59.754;10.110;2023-02-01T15:22:57;99794.40;;;-0.40
65290;BMP180;51893;59.754;10.110;2023-02-01T15:25:33;99812.40;;;-0.50
65290;BMP180;51893;59.754;10.110;2023-02-01T15:28:08;99817.60;;;-0.60
65290;BMP180;51893;59.754;10.110;2023-02-01T15:30:40;99827.80;;;-0.60
65290;BMP180;51893;59.754;10.110;2023-02-01T15:33:19;99832.20;;;-0.70
65290;BMP180;51893;59.754;10.110;2023-02-01T15:35:52;99838.40;;;-0.70
65290;BMP180;51893;59.754;10.110;2023-02-01T15:41:14;99852.80;;;-0.80
65290;BMP180;51893;59.754;10.110;2023-02-01T15:44:05;99862.80;;;-0.90
65290;BMP180;51893;59.754;10.110;2023-02-01T15:46:43;99872.00;;;-0.94
65290;BMP180;51893;59.754;10.110;2023-02-01T15:49:37;99876.60;;;-1.00
65290;BMP180;51893;59.754;10.110;2023-02-01T15:52:42;99885.60;;;-1.06
65290;BMP180;51893;59.754;10.110;2023-02-01T15:55:34;99895.00;;;-1.20
65290;BMP180;51893;59.754;10.110;2023-02-01T15:58:22;99908.80;;;-1.20
65290;BMP180;51893;59.754;10.110;2023-02-01T16:00:55;99919.00;;;-1.28
65290;BMP180;51893;59.754;10.110;2023-02-01T16:03:37;99920.60;;;-1.30
65290;BMP180;51893;59.754;10.110;2023-02-01T16:06:29;99919.60;;;-1.30
65290;BMP180;51893;59.754;10.110;2023-02-01T16:09:12;99925.40;;;-1.30
65290;BMP180;51893;59.754;10.110;2023-02-01T16:12:01;99926.80;;;-1.40
65290;BMP180;51893;59.754;10.110;2023-02-01T16:14:30;99941.60;;;-1.40
65290;BMP180;51893;59.754;10.110;2023-02-01T16:17:00;99946.20;;;-1.42
65290;BMP180;51893;59.754;10.110;2023-02-01T16:19:30;99948.60;;;-1.50
65290;BMP180;51893;59.754;10.110;2023-02-01T16:21:59;99952.80;;;-1.50
65290;BMP180;51893;59.754;10.110;2023-02-01T16:24:27;99957.20;;;-1.50
65290;BMP180;51893;59.754;10.110;2023-02-01T16:26:55;99958.20;;;-1.54
65290;BMP180;51893;59.754;10.110;2023-02-01T16:29:24;99966.00;;;-1.60
65290;BMP180;51893;59.754;10.110;2023-02-01T16:31:53;99970.20;;;-1.60
65290;BMP180;51893;59.754;10.110;2023-02-01T16:34:21;99988.80;;;-1.70
65290;BMP180;51893;59.754;10.110;2023-02-01T16:36:49;99993.60;;;-1.80
65290;BMP180;51893;59.754;10.110;2023-02-01T16:39:20;99994.60;;;-1.80
65290;BMP180;51893;59.754;10.110;2023-02-01T16:41:48;100002.00;;;-1.90
65290;BMP180;51893;59.754;10.110;2023-02-01T16:44:17;100007.20;;;-2.00
65290;BMP180;51893;59.754;10.110;2023-02-01T16:46:48;100013.80;;;-2.00
65290;BMP180;51893;59.754;10.110;2023-02-01T16:49:23;100020.40;;;-1.90
65290;BMP180;51893;59.754;10.110;2023-02-01T16:51:56;100024.40;;;-2.00
65290;BMP180;51893;59.754;10.110;2023-02-01T16:54:25;100027.60;;;-2.00
65290;BMP180;51893;59.754;10.110;2023-02-01T16:56:54;100038.20;;;-2.00
65290;BMP180;51893;59.754;10.110;2023-02-01T16:59:22;100051.20;;;-2.08